South San Pedro, Texas
Current Conditions -  °F | °C
As of 6:35 PM on Thursday 30 Oct 2014 (Local Time) from KRBO Reporting Station
Heavy Rain Heavy Rain  
Wind Chill: 81°   Ceiling: 10000
Heat Index: 84°   Visibility: 7mi
Dew Point: 70°   Wind: 16mph
Humidity: 70%   Direction: 100°E
Pressure: 30.03"   Gusts: NA
Location:  27.7757°N, 97.7554°W
Report Text: KRBO 302335Z AUTO 10014KT 7SM +RA BKN100 27/21 A3003 RMK AO2 T02700210
Loading
Personal Weather Stations






























Interactive Weather Map
Tropical Storm Tracking
New forecast layout! Learn more

10-Day Weather Forecast

Advertisements
Track Severe Weather on mobile